createdAt,value
2017-08-10T00:00:07.256Z,16.70
2017-08-10T00:02:34.778Z,16.70
2017-08-10T00:05:02.283Z,16.70
2017-08-10T00:07:29.803Z,16.70
2017-08-10T00:09:57.302Z,16.70
2017-08-10T00:12:24.839Z,16.80
2017-08-10T00:14:52.350Z,16.90
2017-08-10T00:17:19.864Z,16.80
2017-08-10T00:19:47.392Z,16.80
2017-08-10T00:22:14.905Z,16.80
2017-08-10T00:24:43.199Z,16.80
2017-08-10T00:27:10.707Z,16.80
2017-08-10T00:29:38.231Z,16.80
2017-08-10T00:32:05.739Z,16.80
2017-08-10T00:34:33.267Z,16.80
2017-08-10T00:37:00.778Z,16.80
2017-08-10T00:39:29.075Z,16.90
2017-08-10T00:41:56.579Z,16.80
2017-08-10T00:44:24.088Z,16.90
2017-08-10T00:46:51.614Z,17.00
2017-08-10T00:49:19.123Z,17.20
2017-08-10T00:51:46.643Z,17.10
2017-08-10T00:54:14.155Z,17.10
2017-08-10T00:56:41.683Z,17.20
2017-08-10T00:59:09.186Z,17.10
2017-08-10T01:01:36.694Z,17.20
2017-08-10T01:04:04.219Z,17.10
2017-08-10T01:06:31.727Z,17.00
2017-08-10T01:08:59.251Z,17.00
2017-08-10T01:11:27.531Z,17.00
2017-08-10T01:13:55.827Z,17.00
2017-08-10T01:16:23.339Z,16.90
2017-08-10T01:18:50.864Z,17.00
2017-08-10T01:21:18.367Z,16.90
2017-08-10T01:23:45.888Z,16.90
2017-08-10T01:26:13.395Z,16.90
2017-08-10T01:28:40.919Z,16.90
2017-08-10T01:31:08.431Z,16.80
2017-08-10T01:33:35.959Z,16.70
2017-08-10T01:36:03.467Z,16.70
2017-08-10T01:38:30.991Z,16.60
2017-08-10T01:40:59.266Z,16.50
2017-08-10T01:43:27.559Z,16.50
2017-08-10T01:45:55.088Z,16.50
2017-08-10T01:48:22.594Z,16.50
2017-08-10T01:50:50.115Z,16.50
2017-08-10T01:53:17.623Z,16.40
2017-08-10T01:55:45.148Z,16.40
2017-08-10T01:58:12.655Z,16.40
2017-08-10T02:00:40.183Z,16.40
2017-08-10T02:03:07.711Z,16.40
2017-08-10T02:05:35.979Z,16.40
2017-08-10T02:08:03.498Z,16.40
2017-08-10T02:10:31.011Z,16.50
2017-08-10T02:12:58.542Z,16.50
2017-08-10T02:15:26.052Z,16.50
2017-08-10T02:17:53.579Z,16.50
2017-08-10T02:20:21.851Z,16.50
2017-08-10T02:22:50.151Z,16.50
2017-08-10T02:25:17.659Z,16.50
2017-08-10T02:27:45.166Z,16.50
2017-08-10T02:30:12.710Z,16.40
2017-08-10T02:32:40.217Z,16.40
2017-08-10T02:35:07.740Z,16.30
2017-08-10T02:37:35.252Z,16.30
2017-08-10T02:40:02.771Z,16.30
2017-08-10T02:42:30.274Z,16.30
2017-08-10T02:44:57.798Z,16.30
2017-08-10T02:47:25.294Z,16.20
2017-08-10T02:49:52.815Z,16.20
2017-08-10T02:52:20.326Z,16.20
2017-08-10T02:54:48.634Z,16.10
2017-08-10T02:57:16.143Z,16.10
2017-08-10T02:59:43.651Z,16.10
2017-08-10T03:02:11.184Z,16.10
2017-08-10T03:04:39.456Z,16.10
2017-08-10T03:07:06.978Z,16.10
2017-08-10T03:09:34.484Z,16.00
2017-08-10T03:12:02.003Z,16.10
2017-08-10T03:14:29.515Z,16.20
2017-08-10T03:16:57.043Z,16.10
2017-08-10T03:19:24.551Z,16.10
2017-08-10T03:21:52.099Z,16.00
2017-08-10T03:24:19.603Z,16.00
2017-08-10T03:26:47.115Z,16.00
2017-08-10T03:29:14.643Z,16.00
2017-08-10T03:31:42.910Z,16.00
2017-08-10T03:34:10.431Z,16.00
2017-08-10T03:36:37.936Z,16.00
2017-08-10T03:39:06.412Z,16.10
2017-08-10T03:41:33.955Z,16.10
2017-08-10T03:44:01.484Z,16.10
2017-08-10T03:46:28.987Z,16.10
2017-08-10T03:48:57.264Z,16.00
2017-08-10T03:51:25.563Z,16.00
2017-08-10T03:53:53.077Z,16.00
2017-08-10T03:56:20.600Z,16.00
2017-08-10T03:58:48.102Z,16.00
2017-08-10T04:01:15.627Z,16.00
2017-08-10T04:03:43.134Z,16.00
2017-08-10T04:06:11.425Z,16.00
2017-08-10T04:08:38.935Z,15.90
2017-08-10T04:11:06.455Z,15.90
2017-08-10T04:13:33.979Z,15.90
2017-08-10T04:16:02.255Z,15.90
2017-08-10T04:18:29.779Z,15.90
2017-08-10T04:20:57.301Z,15.90
2017-08-10T04:23:24.827Z,15.80
2017-08-10T04:25:53.102Z,15.80
2017-08-10T04:28:20.622Z,15.70
2017-08-10T04:30:48.135Z,15.70
2017-08-10T04:33:16.425Z,15.70
2017-08-10T04:35:43.933Z,15.70
2017-08-10T04:38:11.458Z,15.70
2017-08-10T04:40:38.969Z,15.70
2017-08-10T04:43:06.499Z,15.70
2017-08-10T04:45:34.007Z,15.60
2017-08-10T04:48:01.551Z,15.60
2017-08-10T04:50:29.067Z,15.60
2017-08-10T04:52:56.571Z,15.60
2017-08-10T04:55:24.099Z,15.60
2017-08-10T04:57:51.607Z,15.60
2017-08-10T05:00:19.127Z,15.60
2017-08-10T05:02:46.631Z,15.60
2017-08-10T05:05:14.152Z,15.60
2017-08-10T05:07:41.663Z,15.60
2017-08-10T05:10:09.187Z,15.60
2017-08-10T05:12:36.695Z,15.60
2017-08-10T05:15:04.215Z,15.60
2017-08-10T05:17:31.723Z,15.60
2017-08-10T05:19:59.255Z,15.60
2017-08-10T05:22:26.760Z,15.60
2017-08-10T05:24:54.287Z,15.60
2017-08-10T05:27:21.803Z,15.60
2017-08-10T05:29:49.307Z,15.60
2017-08-10T05:32:16.832Z,15.60
2017-08-10T05:34:44.339Z,15.60
2017-08-10T05:37:11.870Z,15.60
2017-08-10T05:39:39.371Z,15.60
2017-08-10T05:42:07.670Z,15.60
2017-08-10T05:44:35.194Z,15.60
2017-08-10T05:47:02.699Z,15.60
2017-08-10T05:49:30.224Z,15.60
2017-08-10T05:51:58.486Z,15.70
2017-08-10T05:54:26.012Z,15.70
2017-08-10T05:56:53.515Z,15.80
2017-08-10T05:59:21.808Z,15.90
2017-08-10T06:01:49.331Z,15.90
2017-08-10T06:04:16.838Z,15.90
2017-08-10T06:06:44.359Z,15.90
2017-08-10T06:09:11.859Z,16.00
2017-08-10T06:11:39.383Z,16.00
2017-08-10T06:14:07.652Z,16.10
2017-08-10T06:16:35.176Z,16.10
2017-08-10T06:19:02.694Z,16.10
2017-08-10T06:21:30.963Z,16.10
2017-08-10T06:23:58.482Z,16.10
2017-08-10T06:26:25.987Z,16.20
2017-08-10T06:28:53.511Z,16.20
2017-08-10T06:31:21.031Z,16.20
2017-08-10T06:33:48.539Z,16.30
2017-08-10T06:36:16.063Z,16.40
2017-08-10T06:38:43.571Z,16.60
2017-08-10T06:41:11.091Z,16.60
2017-08-10T06:43:38.611Z,16.50
2017-08-10T06:46:06.120Z,16.50
2017-08-10T06:48:33.639Z,16.50
2017-08-10T06:51:01.138Z,16.70
2017-08-10T06:53:28.660Z,17.00
2017-08-10T06:55:56.179Z,16.90
2017-08-10T06:58:23.683Z,16.70
2017-08-10T07:00:51.208Z,16.60
2017-08-10T07:03:18.711Z,16.50
2017-08-10T07:05:46.230Z,16.50
2017-08-10T07:08:13.753Z,16.50
2017-08-10T07:10:42.051Z,16.50
2017-08-10T07:13:10.323Z,16.70
2017-08-10T07:15:38.168Z,16.70
2017-08-10T07:18:05.691Z,16.70
2017-08-10T07:20:33.196Z,16.60
2017-08-10T07:23:01.483Z,16.50
2017-08-10T07:25:28.987Z,16.50
2017-08-10T07:27:56.519Z,16.50
2017-08-10T07:30:24.027Z,16.60
2017-08-10T07:32:51.571Z,16.70
2017-08-10T07:35:19.072Z,16.70
2017-08-10T07:37:46.576Z,16.60
2017-08-10T07:40:14.099Z,16.60
2017-08-10T07:42:41.608Z,16.70
2017-08-10T07:45:09.127Z,16.70
2017-08-10T07:47:36.631Z,16.60
2017-08-10T07:50:04.151Z,16.60
2017-08-10T07:52:31.651Z,16.60
2017-08-10T07:54:59.180Z,16.60
2017-08-10T07:57:26.695Z,16.60
2017-08-10T07:59:54.968Z,16.60
2017-08-10T08:02:22.494Z,16.60
2017-08-10T08:04:50.004Z,16.60
2017-08-10T08:07:17.524Z,16.60
2017-08-10T08:09:45.023Z,16.60
2017-08-10T08:12:12.535Z,16.60
2017-08-10T08:14:40.047Z,16.60
2017-08-10T08:17:07.563Z,16.60
2017-08-10T08:19:35.086Z,16.50
2017-08-10T08:22:02.598Z,16.40
2017-08-10T08:24:30.126Z,16.40
2017-08-10T08:26:57.631Z,16.40
2017-08-10T08:29:25.154Z,16.40
2017-08-10T08:31:52.664Z,16.40
2017-08-10T08:34:20.187Z,16.50
2017-08-10T08:36:47.713Z,16.40
2017-08-10T08:39:15.219Z,16.30
2017-08-10T08:41:42.744Z,16.40
2017-08-10T08:44:10.248Z,16.30
2017-08-10T08:46:37.770Z,16.30
2017-08-10T08:49:06.039Z,16.30
2017-08-10T08:51:33.542Z,16.30
2017-08-10T08:54:01.067Z,16.30
2017-08-10T08:56:28.571Z,16.30
2017-08-10T08:58:56.087Z,16.20
2017-08-10T09:01:23.596Z,16.30
2017-08-10T09:03:51.115Z,16.30
2017-08-10T09:06:18.614Z,16.30
2017-08-10T09:08:46.127Z,16.30
2017-08-10T09:11:13.659Z,16.30
2017-08-10T09:13:41.163Z,16.30
2017-08-10T09:16:08.689Z,16.20
2017-08-10T09:18:36.195Z,16.20
2017-08-10T09:21:03.710Z,16.20
2017-08-10T09:23:31.210Z,16.20
2017-08-10T09:25:58.710Z,16.20
2017-08-10T09:28:26.234Z,16.20
2017-08-10T09:30:53.734Z,16.20
2017-08-10T09:33:22.028Z,16.20
2017-08-10T09:35:49.530Z,16.20
2017-08-10T09:38:17.054Z,16.10
2017-08-10T09:40:44.559Z,16.20
2017-08-10T09:43:12.054Z,16.20
2017-08-10T09:45:40.339Z,16.20
2017-08-10T09:48:07.838Z,16.20
2017-08-10T09:50:35.360Z,16.20
2017-08-10T09:53:02.872Z,16.20
2017-08-10T09:55:30.399Z,16.30
2017-08-10T09:57:57.911Z,16.30
2017-08-10T10:00:26.187Z,16.40
2017-08-10T10:02:54.479Z,16.40
2017-08-10T10:05:21.983Z,16.40
2017-08-10T10:07:49.506Z,16.30
2017-08-10T10:10:17.019Z,16.30
2017-08-10T10:12:44.547Z,16.30
2017-08-10T10:15:12.060Z,16.30
2017-08-10T10:17:39.578Z,16.30
2017-08-10T10:20:07.074Z,16.30
2017-08-10T10:22:34.590Z,16.30
2017-08-10T10:25:02.095Z,16.30
2017-08-10T10:27:29.620Z,16.40
2017-08-10T10:29:57.126Z,16.50
2017-08-10T10:32:24.652Z,16.60
2017-08-10T10:34:52.159Z,16.60
2017-08-10T10:37:19.683Z,16.60
2017-08-10T10:39:47.191Z,16.60
2017-08-10T10:42:14.715Z,16.50
2017-08-10T10:44:42.231Z,16.50
2017-08-10T10:47:09.743Z,16.40
2017-08-10T10:49:37.271Z,16.40
2017-08-10T10:52:04.778Z,16.40
2017-08-10T10:54:32.309Z,16.40
2017-08-10T10:56:59.823Z,16.40
2017-08-10T10:59:27.342Z,16.50
2017-08-10T11:01:54.842Z,16.60
2017-08-10T11:04:22.359Z,16.90
2017-08-10T11:06:49.863Z,16.70
2017-08-10T11:09:17.379Z,16.80
2017-08-10T11:11:44.883Z,16.80
2017-08-10T11:14:12.403Z,16.90
2017-08-10T11:16:40.049Z,17.10
2017-08-10T11:19:07.564Z,17.10
2017-08-10T11:21:35.836Z,17.20
2017-08-10T11:24:03.360Z,17.20
2017-08-10T11:26:30.864Z,16.90
2017-08-10T11:28:59.150Z,16.70
2017-08-10T11:31:27.418Z,16.60
2017-08-10T11:33:54.945Z,16.60
2017-08-10T11:36:22.454Z,16.50
2017-08-10T11:38:49.991Z,16.40
2017-08-10T11:41:17.494Z,16.60
2017-08-10T11:43:44.996Z,16.50
2017-08-10T11:46:12.556Z,16.30
2017-08-10T11:48:40.831Z,16.20
2017-08-10T11:51:08.351Z,16.20
2017-08-10T11:53:35.854Z,16.20
2017-08-10T11:56:04.154Z,16.10
2017-08-10T11:58:31.662Z,16.10
2017-08-10T12:00:59.185Z,16.00
2017-08-10T12:03:26.690Z,16.10
2017-08-10T12:05:54.216Z,16.20
2017-08-10T12:08:21.731Z,16.10
2017-08-10T12:10:49.247Z,16.10
2017-08-10T12:13:16.750Z,16.10
2017-08-10T12:15:44.282Z,16.30
2017-08-10T12:18:11.783Z,16.40
2017-08-10T12:20:39.293Z,16.30
2017-08-10T12:23:06.815Z,16.20
2017-08-10T12:25:34.319Z,16.40
2017-08-10T12:28:01.844Z,16.60
2017-08-10T12:30:29.355Z,16.50
2017-08-10T12:32:56.911Z,16.50
2017-08-10T12:35:25.183Z,16.10
2017-08-10T12:37:53.470Z,16.00
2017-08-10T12:40:20.971Z,16.00
2017-08-10T12:42:48.491Z,16.00
2017-08-10T12:45:15.999Z,15.90
2017-08-10T12:47:43.520Z,15.90
2017-08-10T12:50:11.031Z,15.90
2017-08-10T12:52:38.555Z,15.90
2017-08-10T12:55:06.063Z,15.90
2017-08-10T12:57:34.359Z,15.90
2017-08-10T13:00:01.860Z,15.90
2017-08-10T13:02:29.384Z,16.00
2017-08-10T13:04:56.895Z,15.90
2017-08-10T13:07:24.439Z,16.00
2017-08-10T13:09:51.948Z,15.90
2017-08-10T13:12:19.459Z,15.90
2017-08-10T13:14:46.978Z,16.00
2017-08-10T13:17:14.483Z,16.00
2017-08-10T13:19:42.004Z,15.90
2017-08-10T13:22:09.507Z,15.80
2017-08-10T13:24:37.035Z,15.90
2017-08-10T13:27:04.539Z,15.80
2017-08-10T13:29:32.827Z,15.80
2017-08-10T13:32:00.345Z,15.80
2017-08-10T13:34:27.872Z,15.80
2017-08-10T13:36:55.393Z,15.90
2017-08-10T13:39:23.679Z,15.90
2017-08-10T13:41:51.187Z,15.90
2017-08-10T13:44:18.711Z,15.80
2017-08-10T13:46:46.229Z,15.80
2017-08-10T13:49:13.755Z,15.80
2017-08-10T13:51:41.259Z,15.80
2017-08-10T13:54:09.573Z,15.90
2017-08-10T13:56:37.083Z,15.90
2017-08-10T13:59:04.628Z,15.80
2017-08-10T14:01:32.167Z,15.80
2017-08-10T14:03:59.717Z,15.80
2017-08-10T14:06:27.227Z,15.80
2017-08-10T14:08:54.734Z,15.80
2017-08-10T14:11:22.255Z,15.80
2017-08-10T14:13:49.759Z,15.80
2017-08-10T14:16:17.283Z,15.80
2017-08-10T14:18:44.791Z,15.80
2017-08-10T14:21:12.315Z,15.90
2017-08-10T14:23:39.823Z,16.00
2017-08-10T14:26:07.368Z,16.10
2017-08-10T14:28:34.880Z,16.20
2017-08-10T14:31:02.434Z,16.10
2017-08-10T14:33:29.950Z,15.90
2017-08-10T14:35:57.467Z,15.50
2017-08-10T14:38:24.963Z,15.00
2017-08-10T14:40:52.483Z,14.60
2017-08-10T14:43:19.995Z,14.30
2017-08-10T14:45:47.516Z,13.90
2017-08-10T14:48:15.011Z,13.70
2017-08-10T14:50:43.303Z,13.50
2017-08-10T14:53:11.563Z,13.30
2017-08-10T14:55:39.058Z,13.30
2017-08-10T14:58:06.571Z,13.20
2017-08-10T15:00:34.066Z,13.20
2017-08-10T15:03:01.588Z,13.10
2017-08-10T15:05:29.093Z,13.00
2017-08-10T15:07:56.617Z,13.00
2017-08-10T15:10:24.884Z,12.80
2017-08-10T15:12:52.420Z,12.70
2017-08-10T15:15:20.045Z,12.70
2017-08-10T15:17:47.456Z,12.60
2017-08-10T15:20:14.968Z,12.50
2017-08-10T15:22:42.507Z,12.50
2017-08-10T15:25:10.029Z,12.50
2017-08-10T15:27:37.550Z,12.50
2017-08-10T15:30:05.094Z,12.50
2017-08-10T15:32:32.602Z,12.50
2017-08-10T15:35:00.103Z,12.40
2017-08-10T15:37:27.622Z,12.30
2017-08-10T15:39:55.127Z,12.20
2017-08-10T15:42:22.643Z,12.20
2017-08-10T15:44:50.143Z,12.10
2017-08-10T15:47:17.678Z,12.00
2017-08-10T15:49:45.943Z,12.00
2017-08-10T15:52:14.212Z,11.90
2017-08-10T15:54:41.731Z,11.90
2017-08-10T15:57:09.230Z,11.90
2017-08-10T15:59:36.754Z,11.90
2017-08-10T16:02:04.247Z,11.90
2017-08-10T16:04:31.783Z,11.90
2017-08-10T16:06:59.284Z,11.90
2017-08-10T16:09:26.792Z,11.90
2017-08-10T16:11:54.319Z,11.80
2017-08-10T16:14:21.827Z,11.70
2017-08-10T16:16:49.347Z,11.70
2017-08-10T16:19:16.855Z,11.70
2017-08-10T16:21:44.712Z,11.70
2017-08-10T16:24:12.211Z,11.60
2017-08-10T16:26:39.707Z,11.60
2017-08-10T16:29:07.227Z,11.50
2017-08-10T16:31:34.736Z,11.30
2017-08-10T16:34:02.246Z,11.40
2017-08-10T16:36:29.768Z,11.40
2017-08-10T16:38:57.302Z,11.30
2017-08-10T16:41:24.808Z,11.40
2017-08-10T16:43:52.323Z,11.40
2017-08-10T16:46:19.823Z,11.40
2017-08-10T16:48:48.378Z,11.40
2017-08-10T16:51:15.899Z,11.40
2017-08-10T16:53:43.399Z,11.30
2017-08-10T16:56:10.913Z,11.30
2017-08-10T16:58:38.415Z,11.30
2017-08-10T17:01:05.945Z,11.20
2017-08-10T17:03:33.442Z,11.30
2017-08-10T17:06:01.705Z,11.30
2017-08-10T17:08:29.224Z,11.20
2017-08-10T17:10:56.723Z,11.20
2017-08-10T17:13:24.239Z,11.30
2017-08-10T17:15:51.744Z,11.20
2017-08-10T17:18:20.042Z,11.30
2017-08-10T17:20:47.547Z,11.30
2017-08-10T17:23:15.055Z,11.30
2017-08-10T17:25:43.331Z,11.50
2017-08-10T17:28:11.591Z,11.50
2017-08-10T17:30:39.871Z,11.50
2017-08-10T17:33:07.368Z,11.50
2017-08-10T17:35:34.907Z,11.50
2017-08-10T17:38:02.407Z,11.40
2017-08-10T17:40:29.904Z,11.40
2017-08-10T17:42:57.424Z,11.40
2017-08-10T17:45:24.922Z,11.50
2017-08-10T17:47:52.435Z,11.50
2017-08-10T17:50:19.940Z,11.40
2017-08-10T17:52:47.459Z,11.40
2017-08-10T17:55:14.973Z,11.40
2017-08-10T17:57:42.471Z,11.40
2017-08-10T18:00:09.992Z,11.30
2017-08-10T18:02:37.492Z,11.30
2017-08-10T18:05:05.822Z,11.30
2017-08-10T18:07:33.350Z,11.30
2017-08-10T18:10:00.891Z,11.30
2017-08-10T18:12:28.391Z,11.20
2017-08-10T18:14:55.895Z,11.20
2017-08-10T18:17:23.419Z,11.20
2017-08-10T18:19:50.919Z,11.10
2017-08-10T18:22:18.756Z,11.10
2017-08-10T18:24:46.267Z,11.10
2017-08-10T18:27:14.559Z,11.20
2017-08-10T18:29:42.827Z,11.20
2017-08-10T18:32:11.092Z,11.10
2017-08-10T18:34:38.607Z,11.10
2017-08-10T18:37:06.102Z,11.20
2017-08-10T18:39:33.620Z,11.20
2017-08-10T18:42:01.119Z,11.10
2017-08-10T18:44:28.639Z,11.10
2017-08-10T18:46:56.134Z,11.10
2017-08-10T18:49:23.631Z,11.10
2017-08-10T18:51:51.147Z,11.10
2017-08-10T18:54:18.651Z,11.10
2017-08-10T18:56:46.171Z,11.00
2017-08-10T18:59:13.676Z,11.00
2017-08-10T19:01:41.214Z,10.90
2017-08-10T19:04:08.723Z,10.90
2017-08-10T19:06:36.215Z,10.90
2017-08-10T19:09:04.507Z,10.90
2017-08-10T19:11:32.003Z,10.90
2017-08-10T19:13:59.514Z,10.90
2017-08-10T19:16:27.776Z,10.90
2017-08-10T19:18:56.067Z,10.90
2017-08-10T19:21:24.327Z,11.00
2017-08-10T19:23:51.818Z,10.90
2017-08-10T19:26:19.335Z,10.80
2017-08-10T19:28:46.831Z,10.80
2017-08-10T19:31:14.359Z,10.80
2017-08-10T19:33:41.867Z,10.80
2017-08-10T19:36:09.383Z,10.90
2017-08-10T19:38:37.642Z,11.00
2017-08-10T19:41:05.183Z,10.90
2017-08-10T19:43:32.679Z,10.90
2017-08-10T19:46:00.183Z,10.90
2017-08-10T19:48:27.703Z,10.90
2017-08-10T19:50:55.972Z,10.80
2017-08-10T19:53:23.488Z,10.80
2017-08-10T19:55:50.988Z,10.80
2017-08-10T19:58:18.507Z,10.80
2017-08-10T20:00:46.010Z,10.80
2017-08-10T20:03:13.527Z,10.90
2017-08-10T20:05:41.019Z,10.90
2017-08-10T20:08:08.548Z,10.90
2017-08-10T20:10:36.047Z,10.90
2017-08-10T20:13:03.556Z,10.90
2017-08-10T20:15:31.074Z,10.80
2017-08-10T20:17:58.830Z,10.80
2017-08-10T20:20:26.351Z,10.90
2017-08-10T20:22:53.852Z,10.90
2017-08-10T20:25:21.675Z,10.90
2017-08-10T20:27:49.174Z,10.90
2017-08-10T20:30:16.690Z,10.90
2017-08-10T20:32:45.795Z,10.80
2017-08-10T20:35:13.312Z,10.80
2017-08-10T20:37:40.802Z,10.90
2017-08-10T20:40:08.315Z,10.90
2017-08-10T20:42:35.811Z,10.90
2017-08-10T20:45:03.327Z,10.80
2017-08-10T20:47:30.831Z,10.80
2017-08-10T20:49:58.350Z,10.90
2017-08-10T20:52:25.852Z,11.00
2017-08-10T20:54:53.376Z,11.00
2017-08-10T20:57:20.875Z,11.00
2017-08-10T20:59:48.399Z,11.00
2017-08-10T21:02:15.899Z,11.00
2017-08-10T21:04:44.187Z,11.00
2017-08-10T21:07:12.467Z,11.10
2017-08-10T21:09:40.735Z,11.10
2017-08-10T21:12:09.023Z,11.10
2017-08-10T21:14:36.520Z,11.00
2017-08-10T21:17:04.040Z,11.10
2017-08-10T21:19:31.541Z,11.10
2017-08-10T21:21:59.054Z,11.00
2017-08-10T21:24:26.553Z,11.10
2017-08-10T21:26:54.070Z,11.10
2017-08-10T21:29:21.571Z,11.10
2017-08-10T21:31:49.356Z,11.20
2017-08-10T21:34:16.850Z,11.20
2017-08-10T21:36:44.363Z,11.20
2017-08-10T21:39:11.866Z,11.10
2017-08-10T21:41:39.388Z,11.20
2017-08-10T21:44:06.890Z,11.10
2017-08-10T21:46:34.404Z,11.20
2017-08-10T21:49:01.900Z,11.20
2017-08-10T21:51:29.424Z,11.10
2017-08-10T21:53:56.932Z,11.20
2017-08-10T21:56:24.442Z,11.10
2017-08-10T21:58:52.199Z,11.20
2017-08-10T22:01:19.711Z,11.20
2017-08-10T22:03:47.231Z,11.20
2017-08-10T22:06:15.507Z,11.10
2017-08-10T22:08:43.795Z,11.10
2017-08-10T22:11:12.360Z,11.10
2017-08-10T22:13:39.879Z,11.10
2017-08-10T22:16:07.378Z,11.20
2017-08-10T22:18:34.895Z,11.20
2017-08-10T22:21:02.396Z,11.20
2017-08-10T22:23:29.911Z,11.30
2017-08-10T22:25:57.406Z,11.20
2017-08-10T22:28:24.920Z,11.20
2017-08-10T22:30:52.414Z,11.10
2017-08-10T22:33:19.930Z,11.10
2017-08-10T22:35:47.435Z,11.10
2017-08-10T22:38:14.954Z,11.10
2017-08-10T22:40:42.451Z,11.10
2017-08-10T22:43:09.979Z,11.00
2017-08-10T22:45:37.484Z,11.00
2017-08-10T22:48:06.210Z,10.90
2017-08-10T22:50:33.707Z,10.90
2017-08-10T22:53:01.222Z,10.90
2017-08-10T22:55:28.727Z,11.00
2017-08-10T22:57:56.231Z,10.90
2017-08-10T23:00:23.747Z,10.90
2017-08-10T23:02:51.255Z,10.90
2017-08-10T23:05:18.766Z,10.90
2017-08-10T23:07:46.263Z,10.90
2017-08-10T23:10:13.789Z,10.80
2017-08-10T23:12:42.051Z,10.80
2017-08-10T23:15:09.566Z,10.80
2017-08-10T23:17:37.066Z,10.80
2017-08-10T23:20:04.579Z,10.80
2017-08-10T23:22:32.080Z,10.80
2017-08-10T23:24:59.595Z,10.80
2017-08-10T23:27:27.091Z,10.90
2017-08-10T23:29:54.604Z,10.80
2017-08-10T23:32:22.112Z,10.80
2017-08-10T23:34:49.644Z,10.80
2017-08-10T23:37:17.147Z,10.90
2017-08-10T23:39:45.426Z,11.00
2017-08-10T23:42:13.691Z,10.90
2017-08-10T23:44:41.208Z,10.90
2017-08-10T23:47:08.707Z,10.80
2017-08-10T23:49:36.243Z,10.90
2017-08-10T23:52:03.742Z,10.90
2017-08-10T23:54:32.002Z,10.90
2017-08-10T23:56:59.524Z,10.90
2017-08-10T23:59:27.027Z,10.90
